Time;durP1;ratioP1;P1;durP2;ratioP2;P2;SDS_P1;SDS_P2;PMS_P1;PMS_P2;Temp;Humidity;BMP_temperature;BMP_pressure;BME280_temperature;BME280_humidity;BME280_pressure;Samples;Min_cycle;Max_cycle;Signal;HPM_P1;HPM_P2
2021/06/07 00:00:27;;;;;;;0.70;0.60;;;16.10;99.90;;;16.64;100.00;-21133.63;5065874;28;20446;-77
2021/06/07 00:02:55;;;;;;;0.70;0.60;;;16.00;99.90;;;16.57;100.00;-21131.72;5073824;28;20907;-76
2021/06/07 00:05:24;;;;;;;0.70;0.70;;;16.00;99.90;;;16.58;100.00;-21131.84;5067393;28;20475;-77
2021/06/07 00:07:53;;;;;;;0.80;0.73;;;16.00;99.90;;;16.61;100.00;-21132.66;5070271;28;20455;-77
2021/06/07 00:10:23;;;;;;;0.70;0.60;;;16.00;99.90;;;16.63;100.00;-21133.22;5072386;28;20437;-76
2021/06/07 00:12:50;;;;;;;0.70;0.60;;;16.00;99.90;;;16.62;100.00;-21133.06;5075480;28;20496;-78
2021/06/07 00:15:22;;;;;;;0.70;0.70;;;16.00;99.90;;;16.67;100.00;-21134.44;5071215;28;20863;-79
2021/06/07 00:17:51;;;;;;;0.70;0.63;;;16.00;99.90;;;16.63;100.00;-21133.34;5072605;28;20426;-79
2021/06/07 00:20:29;;;;;;;0.70;0.60;;;16.00;99.90;;;16.68;100.00;-21134.59;5089359;28;20518;-79
2021/06/07 00:22:58;;;;;;;0.70;0.70;;;16.00;99.90;;;16.64;100.00;-21133.50;5073417;28;20505;-79
2021/06/07 00:25:27;;;;;;;0.70;0.67;;;16.00;99.90;;;16.65;100.00;-21133.75;5069980;28;20493;-78
2021/06/07 00:27:55;;;;;;;1.00;1.00;;;16.00;99.90;;;16.66;100.00;-21134.03;5054829;28;20421;-79
2021/06/07 00:30:22;;;;;;;0.70;0.60;;;16.00;99.90;;;16.67;100.00;-21134.44;5054380;28;20475;-78
2021/06/07 00:32:50;;;;;;;0.70;0.60;;;16.00;99.90;;;16.68;100.00;-21134.59;5054106;28;20446;-79
2021/06/07 00:35:21;;;;;;;0.70;0.60;;;16.00;99.90;;;16.72;100.00;-21135.69;5054027;28;20517;-79
2021/06/07 00:37:49;;;;;;;0.70;0.60;;;16.10;99.90;;;16.73;100.00;-21135.81;5053113;28;20464;-79
2021/06/07 00:40:19;;;;;;;0.80;0.70;;;16.10;99.90;;;16.73;100.00;-21135.97;5061192;28;21000;-79
2021/06/07 00:42:47;;;;;;;0.80;0.70;;;16.10;99.90;;;16.75;100.00;-21136.38;5058717;28;20491;-79
2021/06/07 00:45:23;;;;;;;0.70;0.60;;;16.10;99.90;;;16.75;100.00;-21136.38;5062356;28;20443;-78
2021/06/07 00:47:52;;;;;;;0.80;0.70;;;16.10;99.90;;;16.74;100.00;-21136.09;5054317;28;20425;-79
2021/06/07 00:50:35;;;;;;;0.70;0.60;;;16.00;99.90;;;16.69;100.00;-21134.88;5053827;28;20753;-79
2021/06/07 00:53:06;;;;;;;0.70;0.70;;;16.00;99.90;;;16.62;100.00;-21132.94;5054833;28;20465;-79
2021/06/07 00:55:42;;;;;;;0.70;0.60;;;16.00;99.90;;;16.51;100.00;-21130.06;5072480;28;20827;-79
2021/06/07 00:58:10;;;;;;;0.70;0.70;;;15.90;99.90;;;16.51;100.00;-21130.06;5072796;28;20491;-79
2021/06/07 01:00:39;;;;;;;0.70;0.70;;;15.90;99.90;;;16.46;100.00;-21128.69;5073576;28;20814;-79
2021/06/07 01:03:10;;;;;;;0.70;0.60;;;15.80;99.90;;;16.36;100.00;-21125.94;5072898;28;20435;-80
2021/06/07 01:05:43;;;;;;;0.70;0.70;;;15.80;99.90;;;16.30;100.00;-21124.44;5068300;28;20501;-79
2021/06/07 01:08:11;;;;;;;0.70;0.70;;;15.70;99.90;;;16.22;100.00;-21122.22;5053410;28;20497;-79
2021/06/07 01:10:41;;;;;;;0.70;0.60;;;15.60;99.90;;;16.12;100.00;-21119.47;5072467;28;20445;-79
2021/06/07 01:13:08;;;;;;;0.70;0.63;;;15.50;99.90;;;16.05;100.00;-21117.69;5073179;28;20469;-79
2021/06/07 01:15:36;;;;;;;0.70;0.70;;;15.40;99.90;;;15.98;100.00;-21115.78;5071753;28;20463;-79
2021/06/07 01:18:04;;;;;;;0.70;0.63;;;15.40;99.90;;;15.87;100.00;-21112.88;5070989;28;20497;-79
2021/06/07 01:20:32;;;;;;;0.70;0.60;;;15.30;99.90;;;15.84;100.00;-21112.06;5063396;28;20443;-78
2021/06/07 01:23:01;;;;;;;0.70;0.60;;;15.30;99.90;;;15.82;100.00;-21111.50;5066926;28;21068;-78
2021/06/07 01:25:32;;;;;;;0.70;0.63;;;15.20;99.90;;;15.75;100.00;-21109.44;5053162;28;20432;-79
2021/06/07 01:28:01;;;;;;;0.70;0.60;;;15.20;99.90;;;15.72;100.00;-21108.75;5072341;28;20420;-78
2021/06/07 01:30:32;;;;;;;0.87;0.80;;;15.10;99.90;;;15.68;100.00;-21107.66;5072827;28;20990;-79
2021/06/07 01:33:01;;;;;;;0.70;0.70;;;15.10;99.90;;;15.62;100.00;-21106.00;5070817;28;20449;-79
2021/06/07 01:35:31;;;;;;;0.70;0.70;;;15.00;99.90;;;15.57;100.00;-21104.63;5064663;28;21002;-79
2021/06/07 01:38:00;;;;;;;0.70;0.60;;;15.00;99.90;;;15.50;100.00;-21102.72;5054148;28;20561;-79
2021/06/07 01:40:31;;;;;;;0.77;0.73;;;14.90;99.90;;;15.43;100.00;-21101.06;5052246;28;20840;-79
2021/06/07 01:43:00;;;;;;;0.70;0.60;;;14.80;99.90;;;15.40;100.00;-21100.25;5053701;28;20416;-79
2021/06/07 01:45:33;;;;;;;0.70;0.70;;;14.80;99.90;;;15.33;100.00;-21098.31;5051252;28;20432;-78
2021/06/07 01:48:05;;;;;;;0.70;0.60;;;14.70;99.90;;;15.27;100.00;-21096.53;5051946;28;20478;-79
2021/06/07 01:50:34;;;;;;;0.70;0.60;;;14.60;99.90;;;15.18;100.00;-21094.19;5055991;28;20455;-79
2021/06/07 01:53:04;;;;;;;0.80;0.70;;;14.60;99.90;;;15.15;100.00;-21093.38;5066436;28;20888;-79
2021/06/07 01:55:35;;;;;;;0.80;0.80;;;14.50;99.90;;;15.17;100.00;-21094.06;5064962;28;20437;-79
2021/06/07 01:58:04;;;;;;;0.80;0.80;;;14.60;99.90;;;15.18;100.00;-21094.19;5073477;28;20415;-79
2021/06/07 02:00:37;;;;;;;0.70;0.70;;;14.50;99.90;;;15.23;100.00;-21095.56;5068376;28;20463;-79
2021/06/07 02:03:06;;;;;;;0.70;0.70;;;14.60;99.90;;;15.28;100.00;-21096.81;5052485;28;20470;-79
2021/06/07 02:05:39;;;;;;;0.70;0.60;;;14.60;99.90;;;15.29;100.00;-21097.22;5052080;28;20440;-78
2021/06/07 02:08:11;;;;;;;0.77;0.77;;;14.60;99.90;;;15.30;100.00;-21097.34;5052601;28;20459;-79
2021/06/07 02:10:43;;;;;;;0.70;0.63;;;14.70;99.90;;;15.38;100.00;-21099.69;5052662;28;20444;-79
2021/06/07 02:13:13;;;;;;;0.80;0.70;;;14.70;99.90;;;15.38;100.00;-21099.69;5052279;28;20440;-79
2021/06/07 02:15:41;;;;;;;0.77;0.70;;;14.70;99.90;;;15.39;100.00;-21099.97;5052999;28;20414;-78
2021/06/07 02:18:11;;;;;;;0.70;0.60;;;14.70;99.90;;;15.41;100.00;-21100.50;5052206;28;20464;-79
2021/06/07 02:20:39;;;;;;;0.90;0.90;;;14.80;99.90;;;15.46;100.00;-21101.88;5051091;28;20848;-79
2021/06/07 02:23:08;;;;;;;0.70;0.60;;;14.80;99.90;;;15.46;100.00;-21101.75;5051693;28;20463;-79
2021/06/07 02:25:36;;;;;;;0.70;0.70;;;14.80;99.90;;;15.45;100.00;-21101.47;5051066;28;20440;-78
2021/06/07 02:28:08;;;;;;;0.70;0.70;;;14.80;99.90;;;15.49;100.00;-21102.44;5052654;28;20938;-79
2021/06/07 02:30:35;;;;;;;0.70;0.70;;;14.80;99.90;;;15.46;100.00;-21101.88;5052979;28;20422;-79
2021/06/07 02:33:03;;;;;;;0.70;0.70;;;14.80;99.90;;;15.52;100.00;-21103.41;5052917;28;20437;-79
2021/06/07 02:35:32;;;;;;;0.70;0.60;;;14.90;99.90;;;15.51;100.00;-21103.13;5051740;28;20780;-79
2021/06/07 02:38:00;;;;;;;0.70;0.60;;;14.80;99.90;;;15.50;100.00;-21102.84;5053323;28;20842;-78
2021/06/07 02:40:33;;;;;;;0.70;0.70;;;14.80;99.90;;;15.53;100.00;-21103.53;5063573;28;20971;-79
2021/06/07 02:43:02;;;;;;;0.70;0.70;;;14.80;99.90;;;15.51;100.00;-21103.00;5076301;28;20407;-78
2021/06/07 02:45:30;;;;;;;0.70;0.70;;;14.80;99.90;;;15.54;100.00;-21103.81;5075191;28;20422;-79
2021/06/07 02:48:00;;;;;;;1.17;1.07;;;14.80;99.90;;;15.58;100.00;-21104.91;5075385;28;20462;-79
2021/06/07 02:50:31;;;;;;;0.70;0.70;;;14.90;99.90;;;15.62;100.00;-21106.00;5075807;28;20410;-79
2021/06/07 02:52:59;;;;;;;0.70;0.70;;;14.90;99.90;;;15.72;100.00;-21108.75;5056541;28;20971;-79
2021/06/07 02:55:31;;;;;;;0.70;0.60;;;14.90;99.90;;;15.80;100.00;-21110.84;5055221;28;20528;-79
2021/06/07 02:57:59;;;;;;;0.70;0.70;;;15.00;99.90;;;15.81;100.00;-21111.25;5054627;28;20490;-79
2021/06/07 03:00:31;;;;;;;0.70;0.60;;;15.00;99.90;;;15.79;100.00;-21110.56;5041481;28;20871;-79
2021/06/07 03:03:01;;;;;;;0.70;0.60;;;15.00;99.90;;;15.76;100.00;-21109.88;5054817;28;20625;-78
2021/06/07 03:05:30;;;;;;;0.70;0.60;;;15.00;99.90;;;15.77;100.00;-21110.13;5063827;28;20438;-79
2021/06/07 03:07:59;;;;;;;0.70;0.60;;;15.00;99.90;;;15.78;100.00;-21110.41;5076605;28;20452;-78
2021/06/07 03:10:28;;;;;;;0.70;0.60;;;15.00;99.90;;;15.83;100.00;-21111.78;5075152;28;20502;-79
2021/06/07 03:12:57;;;;;;;0.70;0.60;;;15.00;99.90;;;15.87;100.00;-21112.88;5073033;28;20436;-78
2021/06/07 03:15:28;;;;;;;0.70;0.70;;;15.10;99.90;;;15.88;100.00;-21113.03;5053764;28;20445;-79
2021/06/07 03:17:57;;;;;;;0.70;0.70;;;15.10;99.90;;;15.95;100.00;-21114.94;5056007;28;20872;-78
2021/06/07 03:20:29;;;;;;;0.70;0.60;;;15.10;99.90;;;15.90;100.00;-21113.72;5054524;28;20424;-78
2021/06/07 03:22:59;;;;;;;0.70;0.60;;;15.10;99.90;;;15.88;100.00;-21113.16;5071500;28;20935;-80
2021/06/07 03:25:29;;;;;;;0.70;0.60;;;15.10;99.90;;;15.83;100.00;-21111.78;5091334;28;20430;-79
2021/06/07 03:27:59;;;;;;;0.70;0.60;;;15.10;99.90;;;15.75;100.00;-21109.44;5074089;28;20437;-79
2021/06/07 03:30:27;;;;;;;0.73;0.73;;;15.00;99.90;;;15.77;100.00;-21110.13;5057914;28;20427;-79
2021/06/07 03:32:54;;;;;;;0.70;0.70;;;15.00;99.90;;;15.71;100.00;-21108.50;5075956;28;20452;-79
2021/06/07 03:35:23;;;;;;;0.70;0.70;;;15.00;99.90;;;15.74;100.00;-21109.31;5057405;28;20539;-79
2021/06/07 03:37:52;;;;;;;0.70;0.60;;;15.00;99.90;;;15.75;100.00;-21109.59;5057371;28;20829;-79
2021/06/07 03:40:25;;;;;;;0.70;0.60;;;15.00;99.90;;;15.68;100.00;-21107.66;5056757;28;20436;-79
2021/06/07 03:42:55;;;;;;;0.70;0.60;;;14.90;99.90;;;15.66;100.00;-21107.13;5060199;28;20424;-79
2021/06/07 03:45:24;;;;;;;0.70;0.60;;;14.90;99.90;;;15.58;100.00;-21104.91;5071015;28;20969;-79
2021/06/07 03:47:51;;;;;;;0.70;0.70;;;14.90;99.90;;;15.52;100.00;-21103.25;5069067;28;20431;-79
2021/06/07 03:50:24;;;;;;;0.70;0.60;;;14.80;99.90;;;15.49;100.00;-21102.44;5057755;28;20442;-79
2021/06/07 03:52:52;;;;;;;0.80;0.70;;;14.80;99.90;;;15.51;100.00;-21103.00;5054716;28;20521;-79
2021/06/07 03:55:23;;;;;;;0.70;0.60;;;14.80;99.90;;;15.42;100.00;-21100.78;5067611;28;20501;-79
2021/06/07 03:57:54;;;;;;;0.70;0.60;;;14.80;99.90;;;15.48;100.00;-21102.16;5054237;28;20465;-79
2021/06/07 04:00:26;;;;;;;0.70;0.63;;;14.70;99.90;;;15.59;100.00;-21105.19;5055227;28;20448;-77
2021/06/07 04:02:56;;;;;;;0.70;0.70;;;14.80;99.90;;;15.57;100.00;-21104.63;5067715;28;20947;-77
2021/06/07 04:05:24;;;;;;;0.70;0.60;;;14.90;99.90;;;15.58;100.00;-21104.91;5074011;28;20855;-77
2021/06/07 04:07:55;;;;;;;0.70;0.63;;;14.90;99.90;;;15.58;100.00;-21104.91;5055506;28;20485;-79
2021/06/07 04:10:25;;;;;;;0.70;0.60;;;14.90;99.90;;;15.53;100.00;-21103.53;5071369;28;20435;-79
2021/06/07 04:12:55;;;;;;;0.70;0.60;;;14.90;99.90;;;15.56;100.00;-21104.50;5067767;28;20429;-79
2021/06/07 04:15:25;;;;;;;0.70;0.60;;;14.90;99.90;;;15.58;100.00;-21105.06;5061962;28;20477;-80
2021/06/07 04:17:55;;;;;;;0.90;0.90;;;14.90;99.90;;;15.67;100.00;-21107.53;5053003;28;20468;-78
2021/06/07 04:20:27;;;;;;;0.80;0.70;;;14.90;99.90;;;15.74;100.00;-21109.31;5054976;28;20424;-80
2021/06/07 04:22:54;;;;;;;0.70;0.60;;;14.90;99.90;;;15.74;100.00;-21109.31;5053256;28;21042;-79
2021/06/07 04:25:23;;;;;;;0.70;0.70;;;15.00;99.90;;;15.87;100.00;-21112.88;5053086;28;20434;-79
2021/06/07 04:27:54;;;;;;;0.70;0.60;;;15.10;99.90;;;15.88;100.00;-21113.03;5055757;28;20428;-79
2021/06/07 04:30:24;;;;;;;0.70;0.70;;;15.10;99.90;;;15.88;100.00;-21113.16;5069189;28;20457;-79
2021/06/07 04:32:54;;;;;;;0.70;0.60;;;15.10;99.90;;;15.88;100.00;-21113.03;5069757;28;20435;-78
2021/06/07 04:35:23;;;;;;;0.70;0.60;;;15.10;99.90;;;15.84;100.00;-21111.94;5054607;28;20443;-78
2021/06/07 04:37:55;;;;;;;0.70;0.70;;;15.10;99.90;;;15.79;100.00;-21110.56;5069067;28;20474;-78
2021/06/07 04:40:28;;;;;;;0.80;0.70;;;15.10;99.90;;;15.88;100.00;-21113.16;5073216;28;20430;-78
2021/06/07 04:42:59;;;;;;;0.70;0.60;;;15.10;99.90;;;15.87;100.00;-21112.75;5072136;28;20411;-78
2021/06/07 04:45:28;;;;;;;0.70;0.60;;;15.10;99.90;;;15.83;100.00;-21111.78;5071177;28;20817;-79
2021/06/07 04:47:56;;;;;;;0.70;0.60;;;15.10;99.90;;;15.82;100.00;-21111.38;5071580;28;20411;-79
2021/06/07 04:50:29;;;;;;;0.70;0.60;;;15.10;99.90;;;15.86;100.00;-21112.47;5071188;28;20777;-78
2021/06/07 04:53:00;;;;;;;0.70;0.70;;;15.10;99.90;;;16.00;100.00;-21116.19;5071984;28;20451;-79
2021/06/07 04:55:34;;;;;;;0.70;0.60;;;15.10;99.90;;;16.03;100.00;-21117.00;5072916;28;20843;-79
2021/06/07 04:58:06;;;;;;;0.70;0.60;;;15.20;99.90;;;16.03;100.00;-21117.00;5072423;28;20507;-78
2021/06/07 05:00:37;;;;;;;0.70;0.70;;;15.20;99.90;;;16.11;100.00;-21119.22;5055771;28;20949;-78
2021/06/07 05:03:05;;;;;;;0.70;0.60;;;15.30;99.90;;;16.21;100.00;-21121.81;5074319;28;20422;-79
2021/06/07 05:05:34;;;;;;;0.70;0.60;;;15.40;99.90;;;16.26;100.00;-21123.31;5064526;28;20527;-79
2021/06/07 05:08:03;;;;;;;0.70;0.70;;;15.40;99.90;;;16.28;100.00;-21123.88;5070040;28;20554;-79
2021/06/07 05:10:31;;;;;;;0.70;0.70;;;15.50;99.90;;;16.41;100.00;-21127.31;5065057;28;20496;-79
2021/06/07 05:12:58;;;;;;;0.70;0.60;;;15.60;99.90;;;16.64;100.00;-21133.50;5071568;28;20433;-78
2021/06/07 05:15:28;;;;;;;0.70;0.60;;;15.70;99.90;;;16.75;100.00;-21136.38;5072809;28;20933;-79
2021/06/07 05:17:56;;;;;;;0.70;0.60;;;15.80;99.90;;;17.00;100.00;-21143.09;5072601;28;20510;-78
2021/06/07 05:20:27;;;;;;;0.80;0.80;;;15.90;99.90;;;16.96;100.00;-21142.00;5072022;28;20448;-79
2021/06/07 05:22:58;;;;;;;0.70;0.70;;;16.00;99.90;;;16.93;100.00;-21141.19;5068354;28;20458;-79
2021/06/07 05:25:29;;;;;;;0.70;0.70;;;16.00;99.90;;;16.89;100.00;-21140.22;5052576;28;20476;-77
2021/06/07 05:27:59;;;;;;;0.70;0.70;;;16.20;99.90;;;17.18;100.00;-21147.91;5053592;28;20806;-79
2021/06/07 05:30:30;;;;;;;0.70;0.60;;;16.30;99.90;;;17.33;100.00;-21152.00;5034966;28;20955;-78
2021/06/07 05:33:00;;;;;;;0.70;0.60;;;16.40;99.90;;;17.34;100.00;-21152.44;5052690;28;20823;-79
2021/06/07 05:35:34;;;;;;;0.70;0.63;;;16.50;99.90;;;17.36;100.00;-21152.84;5044831;28;20445;-78
2021/06/07 05:38:02;;;;;;;1.37;1.27;;;16.60;99.90;;;17.47;100.00;-21155.84;5073347;28;20547;-77
2021/06/07 05:40:31;;;;;;;0.70;0.60;;;16.70;99.90;;;17.48;100.00;-21156.13;5073936;28;20390;-79
2021/06/07 05:42:58;;;;;;;0.70;0.70;;;16.80;99.90;;;17.69;100.00;-21161.75;5070014;28;20436;-76
2021/06/07 05:45:29;;;;;;;0.70;0.60;;;16.80;99.90;;;17.79;100.00;-21164.50;5062802;28;20500;-78
2021/06/07 05:47:58;;;;;;;0.70;0.60;;;16.90;99.90;;;17.69;100.00;-21161.63;5072736;28;20411;-75
2021/06/07 05:50:29;;;;;;;0.70;0.60;;;17.00;99.90;;;17.62;100.00;-21159.97;5072614;28;20434;-78
2021/06/07 05:52:57;;;;;;;0.70;0.60;;;17.00;99.90;;;17.78;100.00;-21164.22;5071957;28;21014;-78
2021/06/07 05:55:28;;;;;;;0.70;0.60;;;17.10;99.90;;;17.76;100.00;-21163.66;5072941;28;20426;-76
2021/06/07 05:58:00;;;;;;;0.80;0.70;;;17.10;99.90;;;17.85;100.00;-21166.13;5072087;28;20454;-77
2021/06/07 06:00:32;;;;;;;0.70;0.70;;;17.10;99.90;;;18.10;100.00;-21172.84;5073308;28;20416;-75
2021/06/07 06:03:01;;;;;;;0.70;0.60;;;17.20;99.90;;;18.24;100.00;-21176.56;5071762;28;20496;-78
2021/06/07 06:05:30;;;;;;;0.70;0.60;;;17.40;99.90;;;18.57;100.00;-21185.31;5070934;28;20460;-77
2021/06/07 06:07:58;;;;;;;0.70;0.60;;;17.60;99.90;;;18.66;100.00;-21187.78;5071306;28;20580;-77
2021/06/07 06:10:26;;;;;;;0.70;0.70;;;17.80;99.90;;;18.77;100.00;-21190.66;5073364;28;20408;-77
2021/06/07 06:12:54;;;;;;;0.70;0.60;;;18.00;99.90;;;18.91;100.00;-21194.34;5071646;28;20431;-75
2021/06/07 06:15:24;;;;;;;0.70;0.70;;;18.20;99.90;;;19.19;100.00;-21202.00;5073177;28;20465;-78
2021/06/07 06:17:54;;;;;;;0.70;0.60;;;18.30;99.90;;;19.40;100.00;-21207.63;5075993;28;20465;-78
2021/06/07 06:20:29;;;;;;;0.80;0.60;;;18.50;99.90;;;19.28;100.00;-21204.47;5075468;28;20427;-77
2021/06/07 06:22:58;;;;;;;0.70;0.60;;;18.60;99.90;;;19.02;100.00;-21197.34;5074946;28;20446;-77
2021/06/07 06:25:28;;;;;;;0.70;0.60;;;18.50;99.90;;;18.86;100.00;-21192.97;5076799;28;20411;-76
2021/06/07 06:27:56;;;;;;;0.70;0.67;;;18.50;99.90;;;18.99;100.00;-21196.69;5074186;28;20438;-77
2021/06/07 06:30:28;;;;;;;0.70;0.70;;;18.50;99.90;;;19.14;100.00;-21200.66;5068085;28;20455;-78
2021/06/07 06:33:00;;;;;;;0.70;0.60;;;18.60;99.90;;;19.64;100.00;-21214.06;5077033;28;20421;-76
2021/06/07 06:35:29;;;;;;;0.70;0.60;;;18.70;99.90;;;19.12;100.00;-21200.09;5075828;28;20957;-78
2021/06/07 06:37:58;;;;;;;0.70;0.60;;;18.70;99.90;;;19.44;100.00;-21208.56;5075418;28;20449;-77
2021/06/07 06:40:29;;;;;;;0.70;0.60;;;18.80;99.90;;;19.43;100.00;-21208.44;5075404;28;20408;-76
2021/06/07 06:42:59;;;;;;;0.70;0.60;;;18.80;99.90;;;19.54;100.00;-21211.31;5074874;28;20902;-77
2021/06/07 06:45:28;;;;;;;0.70;0.60;;;19.00;99.90;;;19.97;100.00;-21222.94;5075050;28;20791;-77
2021/06/07 06:47:59;;;;;;;0.70;0.60;;;19.20;99.90;;;20.01;100.00;-21224.03;5076398;28;20461;-78
2021/06/07 06:50:33;;;;;;;0.70;0.60;;;19.30;99.90;;;20.09;100.00;-21226.06;5075942;28;20408;-76
2021/06/07 06:53:03;;;;;;;1.10;1.00;;;19.50;99.90;;;20.12;100.00;-21226.91;5075421;28;20847;-78
2021/06/07 06:55:33;;;;;;;0.70;0.60;;;19.60;99.90;;;19.92;100.00;-21221.44;5075417;28;20378;-78
2021/06/07 06:58:01;;;;;;;0.70;0.60;;;19.60;99.90;;;20.30;100.00;-21231.53;5074479;28;20499;-76
2021/06/07 07:00:31;;;;;;;0.70;0.60;;;19.70;99.90;;;20.36;100.00;-21233.19;5075656;28;20390;-77
2021/06/07 07:03:00;;;;;;;0.70;0.60;;;19.70;99.90;;;20.63;100.00;-21240.56;5073021;28;20882;-77
2021/06/07 07:05:29;;;;;;;0.70;0.60;;;19.90;99.90;;;20.26;100.00;-21230.72;5068045;28;20455;-77
2021/06/07 07:07:57;;;;;;;0.80;0.70;;;19.90;99.90;;;20.72;100.00;-21242.88;5054803;28;20845;-77
2021/06/07 07:10:25;;;;;;;1.63;0.90;;;20.00;99.90;;;20.49;100.00;-21236.88;5055080;28;20436;-77
2021/06/07 07:12:53;;;;;;;0.80;0.70;;;20.10;99.90;;;20.65;100.00;-21241.09;5056302;28;20500;-76
2021/06/07 07:15:21;;;;;;;0.70;0.60;;;20.20;99.90;;;20.91;100.00;-21247.91;5054248;28;20414;-77
2021/06/07 07:17:49;;;;;;;3.23;1.17;;;20.20;99.90;;;20.67;100.00;-21241.66;5054204;28;20437;-77
2021/06/07 07:20:19;;;;;;;0.70;0.60;;;20.20;99.90;;;20.51;100.00;-21237.28;5055649;28;20854;-77
2021/06/07 07:22:47;;;;;;;0.73;0.60;;;20.20;99.90;;;20.86;100.00;-21246.56;5054223;28;20985;-77
2021/06/07 07:25:15;;;;;;;0.70;0.60;;;20.10;99.90;;;20.86;100.00;-21246.69;5062494;28;20831;-77
2021/06/07 07:27:43;;;;;;;0.70;0.60;;;20.20;99.90;;;21.07;100.00;-21252.16;5074325;28;20426;-76
2021/06/07 07:30:17;;;;;;;0.70;0.63;;;20.30;99.90;;;21.37;100.00;-21260.22;5075892;28;20481;-77
2021/06/07 07:32:48;;;;;;;1.53;1.07;;;20.60;99.90;;;21.38;100.00;-21260.47;5075762;28;20407;-77
2021/06/07 07:35:18;;;;;;;0.70;0.60;;;20.70;99.90;;;21.31;100.00;-21258.56;5057025;28;20479;-77
2021/06/07 07:37:46;;;;;;;0.70;0.60;;;20.70;99.90;;;20.90;100.00;-21247.78;5055888;28;21057;-78
2021/06/07 07:40:17;;;;;;;1.07;0.97;;;20.70;99.90;;;21.17;100.00;-21254.88;5083156;28;20486;-78
2021/06/07 07:42:46;;;;;;;0.70;0.60;;;20.70;99.90;;;21.56;100.00;-21265.38;5055665;28;20796;-77
2021/06/07 07:45:19;;;;;;;0.70;0.60;;;20.80;99.90;;;21.75;100.00;-21270.28;5068331;28;20476;-77
2021/06/07 07:47:47;;;;;;;0.70;0.60;;;21.00;99.90;;;21.84;100.00;-21272.75;5075655;28;20444;-76
2021/06/07 07:50:19;;;;;;;0.80;0.80;;;21.10;99.90;;;21.73;100.00;-21269.75;5074205;28;20469;-75
2021/06/07 07:52:49;;;;;;;0.70;0.60;;;21.10;99.90;;;21.63;100.00;-21267.28;5057405;28;20512;-77
2021/06/07 07:55:21;;;;;;;0.80;0.60;;;21.10;99.90;;;21.43;100.00;-21261.84;5074281;28;20415;-77
2021/06/07 07:57:51;;;;;;;0.70;0.57;;;21.20;99.90;;;21.65;100.00;-21267.84;5072933;28;20543;-78
2021/06/07 08:00:22;;;;;;;0.70;0.60;;;21.20;99.90;;;21.85;100.00;-21273.03;5074346;28;20967;-78
2021/06/07 08:02:50;;;;;;;0.70;0.60;;;21.40;99.90;;;22.11;100.00;-21279.97;5073881;28;20469;-77
2021/06/07 08:05:20;;;;;;;0.70;0.60;;;21.60;99.90;;;22.43;100.00;-21288.56;5074038;28;20451;-76
2021/06/07 08:07:48;;;;;;;0.70;0.60;;;21.90;99.90;;;22.90;100.00;-21301.06;5073582;28;20879;-76
2021/06/07 08:10:16;;;;;;;0.70;0.60;;;22.10;99.90;;;22.71;100.00;-21296.03;5073826;28;20441;-76
2021/06/07 08:12:45;;;;;;;0.80;0.70;;;22.20;99.90;;;22.81;100.00;-21298.63;5073783;28;20772;-77
2021/06/07 08:15:17;;;;;;;1.10;1.00;;;22.20;99.90;;;23.03;100.00;-21304.47;5073426;28;20432;-77
2021/06/07 08:17:44;;;;;;;0.70;0.60;;;22.40;99.90;;;23.00;100.00;-21303.78;5073581;28;20538;-76
2021/06/07 08:20:17;;;;;;;0.70;0.60;;;22.40;99.90;;;23.31;100.00;-21311.97;5073607;28;20522;-77
2021/06/07 08:22:50;;;;;;;0.73;0.60;;;22.60;99.90;;;22.94;100.00;-21302.03;5073860;28;20439;-77
2021/06/07 08:25:19;;;;;;;0.80;0.60;;;22.50;99.90;;;22.89;100.00;-21300.78;5047994;28;20458;-76
2021/06/07 08:27:47;;;;;;;0.70;0.60;;;22.40;99.90;;;23.26;100.00;-21310.59;5053675;28;20523;-77
2021/06/07 08:30:19;;;;;;;0.70;0.60;;;22.60;99.90;;;22.63;100.00;-21294.00;5052973;28;20532;-78
2021/06/07 08:32:48;;;;;;;0.70;0.60;;;22.50;99.90;;;23.12;100.00;-21307.06;5055646;28;20499;-76
2021/06/07 08:35:16;;;;;;;0.80;0.60;;;22.60;99.90;;;23.10;100.00;-21306.50;5072331;28;20435;-76
2021/06/07 08:37:43;;;;;;;1.43;1.03;;;22.70;99.90;;;23.11;100.00;-21306.78;5074281;28;20427;-76
2021/06/07 08:40:15;;;;;;;0.70;0.60;;;22.80;99.90;;;23.14;100.00;-21307.47;5072250;28;20486;-77
2021/06/07 08:42:43;;;;;;;0.73;0.67;;;22.80;99.90;;;23.42;100.00;-21314.81;5073209;28;20427;-77
2021/06/07 08:45:17;;;;;;;0.70;0.60;;;23.00;99.90;;;23.02;100.00;-21304.34;5073824;28;20431;-76
2021/06/07 08:47:47;;;;;;;0.70;0.50;;;22.90;99.90;;;22.65;100.00;-21294.53;5074230;28;20490;-77
2021/06/07 08:50:18;;;;;;;0.70;0.60;;;22.80;99.90;;;22.68;100.00;-21295.22;5073410;28;20435;-77
2021/06/07 08:52:46;;;;;;;0.80;0.67;;;22.70;99.90;;;23.11;100.00;-21306.66;5072763;28;20470;-76
2021/06/07 08:55:19;;;;;;;0.70;0.60;;;22.70;99.90;;;22.39;100.00;-21287.59;5072251;28;20568;-78
2021/06/07 08:57:50;;;;;;;0.80;0.60;;;22.50;99.90;;;22.25;100.00;-21283.78;5074116;28;20469;-76
2021/06/07 09:00:21;;;;;;;0.70;0.60;;;22.20;99.90;;;21.29;100.00;-21258.16;5065192;28;20448;-77
2021/06/07 09:02:50;;;;;;;0.70;0.50;;;21.70;99.90;;;21.84;100.00;-21272.75;5073888;28;20426;-76
2021/06/07 09:05:18;;;;;;;0.80;0.70;;;21.40;99.90;;;21.67;100.00;-21268.38;5066261;28;20464;-75
2021/06/07 09:07:54;;;;;;;0.80;0.70;;;21.40;99.90;;;21.33;100.00;-21259.09;5068005;28;20886;-77
2021/06/07 09:10:24;;;;;;;1.17;0.93;;;21.10;99.90;;;21.12;100.00;-21253.66;5052138;28;20448;-76
2021/06/07 09:12:54;;;;;;;0.70;0.60;;;20.80;99.90;;;20.81;100.00;-21245.19;5053659;28;20770;-76
2021/06/07 09:15:35;;;;;;;0.70;0.60;;;20.70;99.90;;;20.58;100.00;-21239.19;5054072;28;20415;-76
2021/06/07 09:18:04;;;;;;;0.70;0.60;;;20.50;99.90;;;20.71;100.00;-21242.59;5053523;28;20466;-78
2021/06/07 09:20:33;;;;;;;0.80;0.70;;;20.50;99.90;;;21.01;100.00;-21250.66;5053925;28;20455;-78
2021/06/07 09:23:05;;;;;;;0.70;0.50;;;20.60;99.90;;;21.31;100.00;-21258.69;5052274;28;20444;-76
2021/06/07 09:25:37;;;;;;;0.77;0.60;;;20.90;99.90;;;21.65;100.00;-21267.69;5063788;28;20423;-76
2021/06/07 09:28:24;;;;;;;0.70;0.60;;;21.10;99.90;;;21.95;100.00;-21275.75;5071139;28;20484;-76
2021/06/07 09:30:56;;;;;;;0.70;0.60;;;21.30;99.90;;;22.07;100.00;-21278.88;5072062;28;20432;-77
2021/06/07 09:33:33;;;;;;;0.73;0.60;;;21.40;99.90;;;22.48;100.00;-21289.91;5071134;28;20826;-76
2021/06/07 09:36:25;;;;;;;0.80;0.70;;;21.50;99.90;;;22.03;100.00;-21277.91;5071141;28;20949;-77
2021/06/07 09:39:07;;;;;;;0.70;0.60;;;21.60;99.90;;;22.30;100.00;-21285.00;5053184;28;20467;-75
2021/06/07 09:41:59;;;;;;;0.70;0.63;;;21.70;99.90;;;21.95;100.00;-21275.88;5053680;28;20408;-77
2021/06/07 09:44:51;;;;;;;0.70;0.60;;;21.70;99.90;;;21.43;100.00;-21261.84;5068527;28;20430;-77
2021/06/07 09:47:24;;;;;;;0.80;0.70;;;21.50;99.90;;;21.75;100.00;-21270.28;5050920;28;20424;-76
2021/06/07 09:49:55;;;;;;;0.70;0.57;;;21.40;99.90;;;21.83;100.00;-21272.47;5081603;28;20497;-78
2021/06/07 09:52:26;;;;;;;0.70;0.60;;;21.40;99.90;;;22.48;100.00;-21289.91;5062798;28;20423;-76
2021/06/07 09:55:09;;;;;;;0.70;0.60;;;21.60;99.90;;;23.10;100.00;-21306.38;5071965;28;20434;-76
2021/06/07 09:57:50;;;;;;;0.70;0.60;;;22.00;99.90;;;23.00;100.00;-21303.78;5072174;28;20418;-75
2021/06/07 10:00:41;;;;;;;0.80;0.70;;;22.20;99.90;;;22.98;100.00;-21303.25;5071698;28;20451;-77
2021/06/07 10:03:21;;;;;;;0.70;0.60;;;22.40;99.90;;;23.45;100.00;-21315.63;5070842;28;20481;-77
2021/06/07 10:05:52;;;;;;;0.70;0.50;;;22.70;99.90;;;23.50;100.00;-21317.13;5072511;28;20438;-78
2021/06/07 10:08:24;;;;;;;0.70;0.60;;;22.90;99.90;;;22.77;100.00;-21297.66;5060441;28;20439;-77
2021/06/07 10:10:54;;;;;;;1.30;0.77;;;22.60;99.90;;;23.10;100.00;-21306.50;5072155;28;20427;-77
2021/06/07 10:13:23;;;;;;;0.80;0.70;;;22.40;99.90;;;23.44;100.00;-21315.50;5072110;28;20412;-77
2021/06/07 10:15:51;;;;;;;0.70;0.60;;;22.60;99.90;;;23.23;100.00;-21309.91;5072500;28;20459;-78
2021/06/07 10:18:21;;;;;;;0.80;0.73;;;22.70;99.90;;;22.93;100.00;-21301.88;5069946;28;20822;-76